Latest Weather Observations for Perth Airport

IDW60901

Issued at 5:41 pm WST Friday 12 February 2016 (issued every 10 minutes, with the page automatically refreshed every 10 minutes)

About weather observations | Map of Perth area stations | Latest observations for Perth area | Other Formats
Station Details ID: 009021 Name: PERTH AIRPORT Lat: -31.93 Lon: 115.98 Height: 15.4 m
Data from the previous 72 hours. | See also: Recent months at Perth Airport
Date/Time
WST
Tmp

°C
App
Tmp
°C
Dew
Point
°C
Rel
Hum
%
Delta-T

°C
Wind Press
QNH
hPa
Press
MSL
hPa
Rain
since
9 am
mm
Dir
 
Spd
km/h
Gust
km/h
Spd
kts
Gust
kts
12/05:30pm 27.3 23.0 15.5 48 7.2 SSW 32 37 17 20 1015.7 - 0.0
12/05:00pm 27.4 23.4 16.2 50 6.9 SW 32 39 17 21 1015.4 - 0.0
12/04:30pm 27.7 23.8 15.4 47 7.5 WSW 30 37 16 20 1015.3 - 0.0
12/04:00pm 28.7 24.0 14.9 43 8.4 SW 33 41 18 22 1015.3 - 0.0
12/03:30pm 29.6 25.5 15.0 41 8.9 SW 30 39 16 21 1015.2 - 0.0
12/03:00pm 30.0 26.3 14.9 39 9.2 WSW 28 37 15 20 1015.3 1015.2 0.0
12/02:30pm 30.2 26.7 15.4 40 9.1 SW 28 41 15 22 1015.4 - 0.0
12/02:00pm 30.0 26.1 15.6 41 8.9 WSW 30 37 16 20 1015.6 - 0.0
12/01:30pm 29.8 26.3 15.5 42 8.8 SW 28 37 15 20 1015.7 - 0.0
12/01:00pm 29.6 25.5 15.9 43 8.5 SW 32 39 17 21 1016.1 - 0.0
12/12:30pm 29.8 26.7 16.5 44 8.3 SW 28 35 15 19 1016.1 - 0.0
12/12:00pm 30.4 28.3 17.1 44 8.4 WSW 24 32 13 17 1016.1 1016.0 0.0
12/11:30am 30.0 28.4 16.4 44 8.5 SW 20 30 11 16 1016.4 - 0.0
12/11:00am 28.5 27.4 17.8 52 6.8 W 20 28 11 15 1016.6 - 0.0
12/10:30am 28.7 26.7 14.9 43 8.4 WSW 19 28 10 15 1016.9 - 0.0
12/10:00am 27.2 27.1 16.9 53 6.4 SW 13 19 7 10 1017.1 - 0.0
12/09:30am 26.0 26.8 17.3 58 5.4 SW 9 13 5 7 1017.3 - 0.0
12/09:00am 24.8 24.8 17.2 62 4.7 SSW 13 19 7 10 1017.4 1017.3 0.0
12/08:30am 23.2 24.0 17.2 69 3.7 S 9 15 5 8 1017.3 - 0.0
12/08:00am 22.0 21.9 16.9 73 3.1 SSW 13 20 7 11 1017.4 - 0.0
12/07:30am 20.7 20.6 16.9 79 2.3 S 13 15 7 8 1017.3 - 0.0
12/07:00am 19.8 19.2 16.6 82 1.9 S 15 19 8 10 1017.1 - 0.0
12/06:30am 19.0 18.0 16.7 86 1.4 S 17 20 9 11 1016.9 - 0.0
12/06:00am 18.9 18.3 16.7 87 1.3 SSW 15 20 8 11 1016.4 1016.3 0.0
12/05:30am 18.9 18.0 16.9 88 1.2 S 17 22 9 12 1015.7 - 0.0
12/05:00am 19.4 18.4 16.7 84 1.6 S 17 20 9 11 1015.7 - 0.0
12/04:30am 19.8 18.0 17.0 84 1.7 SSW 22 28 12 15 1015.3 - 0.0
12/04:00am 20.1 19.4 17.3 84 1.7 SSW 17 26 9 14 1014.9 - 0.0
12/03:30am 20.5 19.3 17.4 82 1.9 S 20 28 11 15 1014.6 - 0.0
12/03:00am 20.9 19.9 18.0 83 1.8 SSW 20 28 11 15 1014.3 1014.2 0.0
12/02:30am 21.1 20.5 18.5 85 1.6 S 19 24 10 13 1013.9 - 0.0
12/02:00am 21.4 20.6 18.4 83 1.9 SSW 20 26 11 14 1013.7 - 0.0
12/01:30am 21.8 20.8 18.9 83 1.8 SSW 22 32 12 17 1013.8 - 0.0
12/01:00am 21.9 22.9 19.5 86 1.5 S 13 17 7 9 1013.9 - 0.0
12/12:30am 22.1 22.9 19.8 87 1.5 SSW 15 17 8 9 1013.9 - 0.0
12/12:12am 22.2 23.4 19.9 87 1.5 S 13 17 7 9 1014.0 - 0.0
12/12:00am 22.3 23.1 19.8 86 1.6 SSW 15 20 8 11 1013.9 1013.8 0.0
 
Date/Time
WST
Tmp

°C
App
Tmp
°C
Dew
Point
°C
Rel
Hum
%
Delta-T

°C
Wind Press
QNH
hPa
Press
MSL
hPa
Rain
since
9 am
mm
Dir
 
Spd
km/h
Gust
km/h
Spd
kts
Gust
kts
11/11:30pm 22.5 23.7 19.9 85 1.7 SSW 13 19 7 10 1014.0 - 0.0
11/11:00pm 22.7 23.0 19.7 83 1.9 SSW 17 22 9 12 1014.2 - 0.0
11/10:30pm 22.9 23.7 19.8 83 2.0 SSW 15 19 8 10 1014.2 - 0.0
11/10:00pm 23.2 23.0 19.4 79 2.4 SSW 19 22 10 12 1014.2 - 0.0
11/09:30pm 23.5 21.5 19.1 76 2.8 SSW 28 32 15 17 1013.9 - 0.0
11/09:00pm 23.7 22.4 19.0 75 3.0 SSW 24 32 13 17 1013.6 1013.5 0.0
11/08:30pm 23.9 23.1 19.2 75 3.0 SW 22 28 12 15 1013.4 - 0.0
11/08:00pm 24.3 22.3 19.1 73 3.3 SW 28 32 15 17 1013.2 - 0.0
11/07:30pm 25.4 25.2 19.7 70 3.7 WSW 20 24 11 13 1012.9 - 0.0
11/07:00pm 26.2 25.8 20.1 69 4.0 WSW 22 28 12 15 1012.5 - 0.0
11/06:30pm 27.6 26.7 19.8 62 5.1 WSW 24 33 13 18 1012.1 - 0.0
11/06:00pm 30.8 30.5 19.1 49 7.6 W 19 26 10 14 1011.6 1011.5 0.0
11/05:30pm 33.5 29.4 11.4 26 13.0 WSW 24 32 13 17 1011.2 - 0.0
11/05:00pm 34.1 28.7 9.4 22 14.1 SW 28 33 15 18 1011.0 - 0.0
11/04:30pm 34.9 30.6 10.9 23 14.1 SSW 24 32 13 17 1010.9 - 0.0
11/04:00pm 34.3 31.8 13.4 28 12.7 SSW 19 28 10 15 1010.9 - 0.0
11/03:30pm 34.1 32.1 15.6 33 11.6 WSW 20 33 11 18 1011.0 - 0.0
11/03:00pm 33.6 31.9 15.7 34 11.2 W 19 26 10 14 1011.2 1011.1 0.0
11/02:30pm 32.6 30.8 15.6 36 10.6 WSW 19 26 10 14 1011.3 - 0.0
11/02:00pm 33.3 31.7 16.6 36 10.6 WSW 20 30 11 16 1011.6 - 0.0
11/01:30pm 32.4 32.1 19.1 45 8.7 W 19 26 10 14 1011.7 - 0.0
11/01:00pm 32.2 32.0 19.8 48 8.2 W 20 26 11 14 1011.9 - 0.0
11/12:30pm 31.8 32.4 20.2 50 7.7 WSW 17 24 9 13 1012.0 - 0.0
11/12:00pm 31.1 31.3 20.6 53 7.0 WSW 20 28 11 15 1012.3 1012.2 0.0
11/11:30am 32.6 33.1 20.8 49 7.9 W 19 24 10 13 1012.1 - 0.0
11/11:00am 33.0 33.4 17.2 39 10.1 N 11 17 6 9 1012.4 - 0.0
11/10:30am 32.6 33.2 17.8 41 9.5 N 11 17 6 9 1012.7 - 0.0
11/10:00am 31.1 31.9 18.2 46 8.3 NW 11 17 6 9 1013.0 - 0.0
11/09:30am 28.7 29.9 17.3 50 7.2 NW 7 15 4 8 1013.0 - 0.0
11/09:00am 28.1 29.6 17.7 53 6.6 N 6 11 3 6 1013.1 1013.0 0.0
11/08:30am 26.3 27.8 17.5 58 5.5 NNE 6 9 3 5 1013.3 - 0.0
11/08:00am 25.0 26.4 18.7 68 4.0 NNE 9 11 5 6 1013.4 - 0.0
11/07:30am 24.5 26.4 19.0 71 3.5 NE 7 9 4 5 1013.1 - 0.0
11/07:00am 23.2 24.1 17.6 71 3.5 NNE 9 15 5 8 1012.7 - 0.0
11/06:30am 22.1 22.4 17.0 73 3.1 N 11 19 6 10 1012.4 - 0.0
11/06:00am 22.7 22.0 15.5 64 4.3 N 13 13 7 7 1012.0 1011.9 0.0
11/05:30am 21.8 19.8 15.4 67 3.8 ENE 20 24 11 13 1011.3 - 0.0
11/05:00am 20.2 20.1 16.9 81 2.0 NNE 13 17 7 9 1011.5 - 0.0
11/04:30am 20.3 20.4 16.5 79 2.3 N 11 15 6 8 1011.5 - 0.0
11/04:00am 19.7 20.1 16.4 81 2.0 NE 9 11 5 6 1011.2 - 0.0
11/03:30am 20.4 20.4 16.2 77 2.5 NE 11 13 6 7 1011.5 - 0.0
11/03:00am 20.6 20.5 16.1 75 2.7 NNE 11 13 6 7 1011.5 1011.4 0.0
11/02:30am 20.0 19.8 14.7 71 3.1 NNE 9 11 5 6 1011.6 - 0.0
11/02:00am 20.3 20.3 14.1 67 3.6 NNE 7 7 4 4 1011.8 - 0.0
11/01:30am 20.6 20.4 14.6 68 3.5 N 9 11 5 6 1011.8 - 0.0
11/01:00am 20.5 20.9 15.4 72 3.0 SSW 7 7 4 4 1011.9 - 0.0
11/12:30am 21.0 21.6 15.8 72 3.1 SSW 7 9 4 5 1012.1 - 0.0
11/12:00am 22.7 23.0 16.1 66 4.0 SSW 9 13 5 7 1012.5 1012.4 0.0
 
Date/Time
WST
Tmp

°C
App
Tmp
°C
Dew
Point
°C
Rel
Hum
%
Delta-T

°C
Wind Press
QNH
hPa
Press
MSL
hPa
Rain
since
9 am
mm
Dir
 
Spd
km/h
Gust
km/h
Spd
kts
Gust
kts
10/11:30pm 22.9 23.8 16.7 68 3.8 SW 7 11 4 6 1012.3 - 0.0
10/11:00pm 25.2 25.6 16.4 58 5.4 SW 9 11 5 6 1012.7 - 0.0
10/10:30pm 26.0 26.1 16.6 56 5.8 WSW 11 13 6 7 1012.8 - 0.0
10/10:00pm 26.9 27.5 16.8 54 6.3 WSW 9 13 5 7 1013.0 - 0.0
10/09:30pm 27.4 27.2 16.6 51 6.7 WSW 13 22 7 12 1013.0 - 0.0
10/09:00pm 27.9 27.5 16.3 49 7.2 WSW 13 17 7 9 1012.9 1012.8 0.0
10/08:30pm 28.9 27.9 16.6 47 7.7 WSW 17 24 9 13 1012.4 - 0.0
10/08:00pm 29.6 28.9 17.3 47 7.8 W 17 20 9 11 1012.0 - 0.0
10/07:30pm 30.6 30.4 16.8 43 8.7 W 13 15 7 8 1011.7 - 0.0
10/07:00pm 32.3 31.3 14.7 34 10.8 W 13 19 7 10 1011.4 - 0.0
10/06:30pm 34.3 32.1 12.2 26 13.2 W 15 19 8 10 1011.2 - 0.0
10/06:00pm 36.5 32.3 5.8 15 16.8 WSW 17 20 9 11 1011.1 1011.0 0.0
10/05:30pm 37.2 32.0 3.3 12 17.9 SW 20 26 11 14 1011.0 - 0.0
10/05:00pm 37.5 34.3 10.0 19 16.1 W 17 22 9 12 1010.9 - 0.0
10/04:30pm 37.9 34.5 9.3 17 16.6 W 17 20 9 11 1010.9 - 0.0
10/04:00pm 38.5 34.7 7.4 15 17.6 W 17 24 9 13 1010.9 - 0.0
10/03:30pm 38.5 34.0 6.0 13 18.0 WSW 19 26 10 14 1010.9 - 0.0
10/03:00pm 37.5 33.3 7.5 16 16.9 WSW 19 26 10 14 1011.1 1011.0 0.0
10/02:30pm 37.2 33.0 8.2 17 16.5 SW 20 28 11 15 1011.3 - 0.0
10/02:00pm 37.3 33.0 9.3 18 16.2 WSW 22 33 12 18 1011.5 - 0.0
10/01:30pm 36.9 32.4 11.4 21 15.2 WSW 26 35 14 19 1011.5 - 0.0
10/01:00pm 36.3 31.9 11.7 22 14.7 WSW 26 32 14 17 1011.6 - 0.0
10/12:30pm 37.7 33.7 13.0 23 15.1 WSW 26 33 14 18 1011.6 - 0.0
10/12:00pm 42.0 37.6 2.7 9 21.1 NW 15 22 8 12 1011.6 1011.5 0.0
10/11:30am 40.5 36.6 3.2 10 20.0 NW 13 19 7 10 1012.0 - 0.0
10/11:00am 39.4 36.3 7.3 14 18.2 N 13 19 7 10 1012.4 - 0.0
10/10:30am 37.1 34.9 7.7 16 16.6 NNW 9 15 5 8 1012.8 - 0.0
10/10:00am 34.9 32.8 9.7 21 14.5 N 11 17 6 9 1013.1 - 0.0
10/09:30am 32.6 30.3 9.0 23 13.3 NNE 11 17 6 9 1013.5 - 0.0
10/09:00am 30.7 27.9 9.9 27 11.8 NE 15 20 8 11 1013.9 1013.8 0.0
10/08:30am 29.4 26.9 9.6 29 11.1 E 13 19 7 10 1014.4 - 0.0
10/08:00am 28.6 26.4 9.3 30 10.7 ENE 11 22 6 12 1014.4 - 0.0
10/07:30am 28.3 27.6 12.1 36 9.4 WNW 7 11 4 6 1014.3 - 0.0
10/07:00am 26.2 25.0 11.7 40 8.3 WSW 9 15 5 8 1014.1 - 0.0
10/06:30am 25.1 23.5 10.1 38 8.3 ENE 9 13 5 7 1013.6 - 0.0
10/06:00am 25.5 22.7 8.7 34 9.1 ENE 13 15 7 8 1013.2 1013.1 0.0
10/05:30am 25.8 23.1 8.9 34 9.2 NE 13 19 7 10 1012.9 - 0.0
10/05:00am 26.2 23.4 8.4 32 9.6 NE 13 19 7 10 1012.6 - 0.0
10/04:30am 26.3 23.2 8.9 33 9.5 ENE 15 19 8 10 1012.4 - 0.0
10/04:00am 26.7 24.0 9.0 32 9.7 NE 13 15 7 8 1012.3 - 0.0
10/03:30am 27.3 24.6 8.9 31 10.1 NNE 13 17 7 9 1012.1 - 0.0
10/03:00am 27.8 24.4 9.1 31 10.3 ENE 17 24 9 13 1012.0 1011.9 0.0
10/02:30am 28.1 25.4 8.8 29 10.6 ENE 13 20 7 11 1011.9 - 0.0
10/02:00am 28.2 24.8 9.2 30 10.5 ENE 17 24 9 13 1011.9 - 0.0
10/01:49am 27.8 24.0 9.7 32 10.1 ENE 20 26 11 14 1012.1 - 0.0
10/01:30am 22.8 21.4 10.9 47 6.6 SSW 9 13 5 7 1012.2 - 0.0
10/01:00am 21.6 19.8 9.5 46 6.5 SSW 9 11 5 6 1012.5 - 0.0
10/12:30am 21.1 19.8 9.8 48 6.1 S 7 11 4 6 1012.8 - 0.0
10/12:00am 21.5 20.6 10.5 49 6.0 S 6 9 3 5 1013.1 1013.0 0.0
 
Date/Time
WST
Tmp

°C
App
Tmp
°C
Dew
Point
°C
Rel
Hum
%
Delta-T

°C
Wind Press
QNH
hPa
Press
MSL
hPa
Rain
since
9 am
mm
Dir
 
Spd
km/h
Gust
km/h
Spd
kts
Gust
kts
09/11:30pm 22.4 21.2 9.6 44 6.9 S 6 7 3 4 1013.3 - 0.0
09/11:00pm 22.4 21.2 10.3 46 6.6 SSW 7 9 4 5 1013.3 - 0.0
09/10:30pm 23.3 23.5 10.6 44 7.0 CALM 0 0 0 0 1013.2 - 0.0
09/10:00pm 24.6 23.0 8.8 36 8.5 SSW 7 11 4 6 1013.3 - 0.0
09/09:30pm 24.9 23.8 10.5 40 8.0 SSW 7 11 4 6 1013.1 - 0.0
09/09:00pm 26.1 24.5 10.3 37 8.8 SSW 9 11 5 6 1013.0 1012.9 0.0
09/08:30pm 28.8 26.8 10.2 31 10.5 SSW 11 15 6 8 1012.9 - 0.0
09/08:00pm 31.3 28.3 7.8 23 12.9 SW 13 17 7 9 1012.8 - 0.0
09/07:30pm 32.4 29.1 6.2 19 14.1 SW 13 19 7 10 1012.5 - 0.0
09/07:00pm 34.2 30.1 4.5 15 15.7 SW 15 19 8 10 1012.4 - 0.0
09/06:30pm 35.8 30.5 4.9 14 16.6 SW 22 28 12 15 1012.3 - 0.0
09/06:00pm 36.6 32.4 5.6 14 16.9 WSW 17 22 9 12 1012.1 1012.0 0.0

Latest Capital City Observations: Canberra | Sydney | Melbourne | Brisbane | Adelaide | Perth | Hobart | Darwin

Other Formats:

Comma delimited format used in spreadsheet applications
http://www.bom.gov.au/fwo/IDW60901/IDW60901.94610.axf

JavaScript Object Notation format (JSON) in row-major order
http://www.bom.gov.au/fwo/IDW60901/IDW60901.94610.json